Time;durP1;ratioP1;P1;durP2;ratioP2;P2;SDS_P1;SDS_P2;PMS_P1;PMS_P2;Temp;Humidity;BMP_temperature;BMP_pressure;BME280_temperature;BME280_humidity;BME280_pressure;Samples;Min_cycle;Max_cycle;Signal;HPM_P1;HPM_P2
2021/03/05 00:02:13;;;;;;;;;;;10.30;90.90;;;;;;5039820;28;87715;-64
2021/03/05 00:04:38;;;;;;;;;;;10.30;90.90;;;;;;5036309;28;88978;-64
2021/03/05 00:07:04;;;;;;;;;;;10.30;91.00;;;;;;5037907;28;87157;-64
2021/03/05 00:09:29;;;;;;;;;;;10.30;90.70;;;;;;5039182;28;87250;-63
2021/03/05 00:11:55;;;;;;;;;;;10.30;90.90;;;;;;5040033;28;88061;-64
2021/03/05 00:14:20;;;;;;;;;;;10.30;90.90;;;;;;5044049;28;86784;-64
2021/03/05 00:16:45;;;;;;;;;;;10.30;90.90;;;;;;5037011;28;87261;-63
2021/03/05 00:19:11;;;;;;;;;;;10.30;91.00;;;;;;5037201;28;87255;-63
2021/03/05 00:21:36;;;;;;;;;;;10.30;90.90;;;;;;5038028;28;88083;-64
2021/03/05 00:24:02;;;;;;;;;;;10.30;90.90;;;;;;5039626;28;88250;-64
2021/03/05 00:26:28;;;;;;;;;;;10.20;90.90;;;;;;5041048;27;87185;-65
2021/03/05 00:28:53;;;;;;;;;;;10.20;90.90;;;;;;5038532;28;87557;-63
2021/03/05 00:31:19;;;;;;;;;;;10.20;90.80;;;;;;5036194;28;87806;-64
2021/03/05 00:33:44;;;;;;;;;;;10.20;90.80;;;;;;5037600;27;87184;-64
2021/03/05 00:36:10;;;;;;;;;;;10.20;90.80;;;;;;5039570;28;87623;-64
2021/03/05 00:38:35;;;;;;;;;;;10.20;91.00;;;;;;5036822;28;86437;-64
2021/03/05 00:41:01;;;;;;;;;;;10.20;91.00;;;;;;5036933;27;88936;-64
2021/03/05 00:43:26;;;;;;;;;;;10.20;90.80;;;;;;5036040;28;88822;-64
2021/03/05 00:45:52;;;;;;;;;;;10.20;91.10;;;;;;5036454;28;88126;-64
2021/03/05 00:48:17;;;;;;;;;;;10.20;90.80;;;;;;5037540;28;88659;-64
2021/03/05 00:50:43;;;;;;;;;;;10.20;90.70;;;;;;5036088;27;88294;-64
2021/03/05 00:53:09;;;;;;;;;;;10.10;90.80;;;;;;5035673;28;87155;-64
2021/03/05 00:55:34;;;;;;;;;;;10.10;90.80;;;;;;5038534;28;87589;-64
2021/03/05 00:58:00;;;;;;;;;;;10.10;90.60;;;;;;5037217;28;87175;-64
2021/03/05 01:00:26;;;;;;;;;;;10.10;90.90;;;;;;5038411;27;87155;-64
2021/03/05 01:02:52;;;;;;;;;;;10.10;90.70;;;;;;5038799;27;87065;-63
2021/03/05 01:05:17;;;;;;;;;;;10.10;90.70;;;;;;5040059;28;87252;-64
2021/03/05 01:07:43;;;;;;;;;;;10.10;90.80;;;;;;5042452;27;88835;-64
2021/03/05 01:10:09;;;;;;;;;;;10.10;90.70;;;;;;5040029;27;88933;-64
2021/03/05 01:12:34;;;;;;;;;;;10.00;90.80;;;;;;5039453;27;87173;-64
2021/03/05 01:15:00;;;;;;;;;;;10.00;90.80;;;;;;5040534;27;87718;-64
2021/03/05 01:17:26;;;;;;;;;;;10.00;90.80;;;;;;5043863;28;87161;-63
2021/03/05 01:19:51;;;;;;;;;;;10.00;90.80;;;;;;5042763;28;87154;-65
2021/03/05 01:22:17;;;;;;;;;;;10.00;90.80;;;;;;5043731;28;87158;-63
2021/03/05 01:24:42;;;;;;;;;;;10.00;90.80;;;;;;5041260;27;88423;-64
2021/03/05 01:27:08;;;;;;;;;;;10.00;90.70;;;;;;5039874;27;86966;-64
2021/03/05 01:29:34;;;;;;;;;;;10.00;90.70;;;;;;5039859;27;88129;-63
2021/03/05 01:31:59;;;;;;;;;;;10.00;90.70;;;;;;5041428;28;87119;-64
2021/03/05 01:34:25;;;;;;;;;;;9.90;90.70;;;;;;5042031;28;88167;-64
2021/03/05 01:36:50;;;;;;;;;;;9.90;90.70;;;;;;5043447;27;88084;-64
2021/03/05 01:39:16;;;;;;;;;;;9.90;90.70;;;;;;5043519;28;88432;-63
2021/03/05 01:41:41;;;;;;;;;;;9.90;90.60;;;;;;5038904;27;87640;-63
2021/03/05 01:44:08;;;;;;;;;;;9.90;90.60;;;;;;5040467;28;87140;-63
2021/03/05 01:46:34;;;;;;;;;;;9.90;90.60;;;;;;5040274;27;87155;-64
2021/03/05 01:48:59;;;;;;;;;;;9.90;90.60;;;;;;5041104;27;87961;-64
2021/03/05 01:51:27;;;;;;;;;;;9.90;90.70;;;;;;5042798;28;86393;-63
2021/03/05 01:53:52;;;;;;;;;;;9.80;90.70;;;;;;5041244;28;87159;-63
2021/03/05 01:56:33;;;;;;;;;;;9.80;90.70;;;;;;5041809;28;87655;-64
2021/03/05 01:58:59;;;;;;;;;;;9.80;90.70;;;;;;5042574;28;88112;-65
2021/03/05 02:01:26;;;;;;;;;;;9.80;90.70;;;;;;5045514;27;88331;-63
2021/03/05 02:03:52;;;;;;;;;;;9.80;90.80;;;;;;5042728;27;88462;-64
2021/03/05 02:06:17;;;;;;;;;;;9.80;90.70;;;;;;5043195;28;87151;-64
2021/03/05 02:08:43;;;;;;;;;;;9.80;90.70;;;;;;5040944;28;88127;-63
2021/03/05 02:11:08;;;;;;;;;;;9.80;90.60;;;;;;5038600;28;87223;-64
2021/03/05 02:13:34;;;;;;;;;;;9.80;90.70;;;;;;5039491;28;87518;-64
2021/03/05 02:16:02;;;;;;;;;;;9.70;90.70;;;;;;5039729;27;87607;-64
2021/03/05 02:18:40;;;;;;;;;;;9.70;90.60;;;;;;5042149;27;87227;-64
2021/03/05 02:21:24;;;;;;;;;;;9.70;90.70;;;;;;5038592;27;88858;-64
2021/03/05 02:24:04;;;;;;;;;;;9.70;90.50;;;;;;5042830;28;88185;-64
2021/03/05 02:26:55;;;;;;;;;;;9.70;90.70;;;;;;5041310;27;87905;-64
2021/03/05 02:29:39;;;;;;;;;;;9.70;90.60;;;;;;5041829;27;88120;-64
2021/03/05 02:32:23;;;;;;;;;;;9.70;90.70;;;;;;5043158;28;87166;-64
2021/03/05 02:34:50;;;;;;;;;;;9.60;90.40;;;;;;5038876;28;88078;-64
2021/03/05 02:37:16;;;;;;;;;;;9.60;90.60;;;;;;5037799;28;87163;-64
2021/03/05 02:39:42;;;;;;;;;;;9.60;90.50;;;;;;5038341;28;87167;-63
2021/03/05 02:42:09;;;;;;;;;;;9.60;90.50;;;;;;5039591;28;87269;-64
2021/03/05 02:44:39;;;;;;;;;;;9.60;90.70;;;;;;5042644;27;88692;-63
2021/03/05 02:47:06;;;;;;;;;;;9.60;90.70;;;;;;5045359;27;87217;-64
2021/03/05 02:49:34;;;;;;;;;;;9.60;90.50;;;;;;5040125;28;89178;-63
2021/03/05 02:52:04;;;;;;;;;;;9.50;90.50;;;;;;5039722;28;87229;-64
2021/03/05 02:54:29;;;;;;;;;;;9.50;90.40;;;;;;5041443;28;89794;-64
2021/03/05 02:56:57;;;;;;;;;;;9.50;90.50;;;;;;5042097;27;87440;-63
2021/03/05 02:59:22;;;;;;;;;;;9.50;90.50;;;;;;5041432;27;87118;-64
2021/03/05 03:01:48;;;;;;;;;;;9.50;90.40;;;;;;5041226;28;87609;-64
2021/03/05 03:04:14;;;;;;;;;;;9.50;90.40;;;;;;5039248;28;87738;-64
2021/03/05 03:06:42;;;;;;;;;;;9.50;90.60;;;;;;5041787;27;86411;-64
2021/03/05 03:09:07;;;;;;;;;;;9.50;90.50;;;;;;5039191;27;87624;-64
2021/03/05 03:11:33;;;;;;;;;;;9.40;90.60;;;;;;5037533;28;87137;-64
2021/03/05 03:13:59;;;;;;;;;;;9.40;90.50;;;;;;5037969;28;88088;-63
2021/03/05 03:16:26;;;;;;;;;;;9.40;90.40;;;;;;5038303;28;87246;-64
2021/03/05 03:18:52;;;;;;;;;;;9.40;90.50;;;;;;5037809;27;87165;-64
2021/03/05 03:21:18;;;;;;;;;;;9.40;90.20;;;;;;5037555;28;87627;-64
2021/03/05 03:23:43;;;;;;;;;;;9.40;90.40;;;;;;5038284;27;88180;-64
2021/03/05 03:26:09;;;;;;;;;;;9.40;90.50;;;;;;5039705;28;87155;-64
2021/03/05 03:28:35;;;;;;;;;;;9.40;90.40;;;;;;5043481;27;87521;-64
2021/03/05 03:31:04;;;;;;;;;;;9.30;90.50;;;;;;5040091;28;86380;-64
2021/03/05 03:33:30;;;;;;;;;;;9.30;90.50;;;;;;5041891;27;87187;-64
2021/03/05 03:35:56;;;;;;;;;;;9.30;90.70;;;;;;5040406;27;87572;-65
2021/03/05 03:38:22;;;;;;;;;;;9.30;90.40;;;;;;5039582;27;88140;-63
2021/03/05 03:40:48;;;;;;;;;;;9.30;90.50;;;;;;5038544;28;88638;-64
2021/03/05 03:43:13;;;;;;;;;;;9.30;90.50;;;;;;5038675;28;87171;-64
2021/03/05 03:45:40;;;;;;;;;;;9.30;90.50;;;;;;5040372;28;87197;-64
2021/03/05 03:48:06;;;;;;;;;;;9.20;90.30;;;;;;5040198;28;87258;-64
2021/03/05 03:50:58;;;;;;;;;;;9.30;90.50;;;;;;5043415;27;88332;-65
2021/03/05 03:53:28;;;;;;;;;;;9.20;90.30;;;;;;5037425;28;87265;-64
2021/03/05 03:55:54;;;;;;;;;;;9.20;90.30;;;;;;5041333;28;87519;-63
2021/03/05 03:58:21;;;;;;;;;;;9.20;90.50;;;;;;5039650;27;88140;-63
2021/03/05 04:00:47;;;;;;;;;;;9.20;90.40;;;;;;5039366;27;87372;-63
2021/03/05 04:03:13;;;;;;;;;;;9.10;90.40;;;;;;5036373;27;88751;-64
2021/03/05 04:05:42;;;;;;;;;;;9.10;90.40;;;;;;5038082;28;88186;-63
2021/03/05 04:08:09;;;;;;;;;;;9.10;90.30;;;;;;5037041;28;87525;-63
2021/03/05 04:10:35;;;;;;;;;;;9.10;90.40;;;;;;5040673;27;87648;-64
2021/03/05 04:13:01;;;;;;;;;;;9.10;90.40;;;;;;5042129;28;87143;-63
2021/03/05 04:15:26;;;;;;;;;;;9.10;90.50;;;;;;5039926;28;87762;-64
2021/03/05 04:17:52;;;;;;;;;;;9.10;90.40;;;;;;5040650;27;87155;-64
2021/03/05 04:20:19;;;;;;;;;;;9.10;90.20;;;;;;5041910;27;86755;-64
2021/03/05 04:22:45;;;;;;;;;;;9.10;90.20;;;;;;5039689;27;88500;-63
2021/03/05 04:25:15;;;;;;;;;;;9.00;90.20;;;;;;5038491;28;87158;-63
2021/03/05 04:27:41;;;;;;;;;;;9.00;90.30;;;;;;5038187;27;88109;-63
2021/03/05 04:30:07;;;;;;;;;;;9.00;90.20;;;;;;5038135;27;88281;-64
2021/03/05 04:32:32;;;;;;;;;;;9.00;90.20;;;;;;5038806;28;87181;-64
2021/03/05 04:34:58;;;;;;;;;;;9.00;90.30;;;;;;5042601;27;87491;-64
2021/03/05 04:37:23;;;;;;;;;;;9.00;90.30;;;;;;5040481;28;88601;-64
2021/03/05 04:39:49;;;;;;;;;;;8.90;90.40;;;;;;5037106;28;88629;-64
2021/03/05 04:42:14;;;;;;;;;;;8.90;90.40;;;;;;5034604;28;88391;-64
2021/03/05 04:44:40;;;;;;;;;;;8.90;90.10;;;;;;5037965;28;87395;-63
2021/03/05 04:47:05;;;;;;;;;;;8.90;90.30;;;;;;5040754;28;87632;-64
2021/03/05 04:49:31;;;;;;;;;;;8.90;90.30;;;;;;5037501;28;88103;-64
2021/03/05 04:51:56;;;;;;;;;;;8.90;90.20;;;;;;5035792;27;88133;-64
2021/03/05 04:54:22;;;;;;;;;;;8.80;90.40;;;;;;5040255;28;88564;-64
2021/03/05 04:56:48;;;;;;;;;;;8.90;90.30;;;;;;5038055;28;87174;-63
2021/03/05 04:59:13;;;;;;;;;;;8.80;90.30;;;;;;5038521;28;87569;-64
2021/03/05 05:01:39;;;;;;;;;;;8.80;90.30;;;;;;5038029;28;88178;-64
2021/03/05 05:04:04;;;;;;;;;;;8.80;90.30;;;;;;5039637;27;87135;-64
2021/03/05 05:06:30;;;;;;;;;;;8.80;90.30;;;;;;5040538;27;88068;-64
2021/03/05 05:08:55;;;;;;;;;;;8.70;90.20;;;;;;5037663;28;87557;-64
2021/03/05 05:11:21;;;;;;;;;;;8.70;90.30;;;;;;5036403;28;87153;-64
2021/03/05 05:13:46;;;;;;;;;;;8.70;90.20;;;;;;5037738;28;87545;-63
2021/03/05 05:16:12;;;;;;;;;;;8.70;90.40;;;;;;5040927;28;88490;-64
2021/03/05 05:18:37;;;;;;;;;;;8.70;90.20;;;;;;5040147;28;88363;-65
2021/03/05 05:21:03;;;;;;;;;;;8.70;90.30;;;;;;5037576;28;88142;-64
2021/03/05 05:23:28;;;;;;;;;;;8.70;90.30;;;;;;5035893;27;87146;-63
2021/03/05 05:25:54;;;;;;;;;;;8.70;90.40;;;;;;5037144;28;87606;-64
2021/03/05 05:28:19;;;;;;;;;;;8.70;90.30;;;;;;5038149;28;88084;-63
2021/03/05 05:30:45;;;;;;;;;;;8.60;90.30;;;;;;5039658;28;87222;-64
2021/03/05 05:33:10;;;;;;;;;;;8.60;90.30;;;;;;5039654;28;87249;-64
2021/03/05 05:35:36;;;;;;;;;;;8.70;90.20;;;;;;5035835;28;88567;-63
2021/03/05 05:38:01;;;;;;;;;;;8.60;90.20;;;;;;5041752;28;88604;-64
2021/03/05 05:40:29;;;;;;;;;;;8.60;90.20;;;;;;5038958;27;89534;-64
2021/03/05 05:42:55;;;;;;;;;;;8.60;90.10;;;;;;5036539;27;87191;-64
2021/03/05 05:48:05;;;;;;;;;;;8.60;90.30;;;;;;5039718;28;88793;-64
2021/03/05 05:50:31;;;;;;;;;;;8.60;90.20;;;;;;5038258;28;87586;-64
2021/03/05 05:52:57;;;;;;;;;;;8.50;90.20;;;;;;5038414;28;88442;-64
2021/03/05 05:55:23;;;;;;;;;;;8.50;90.00;;;;;;5039729;27;88097;-64
2021/03/05 05:57:49;;;;;;;;;;;8.50;90.10;;;;;;5039373;27;87668;-64
2021/03/05 06:00:15;;;;;;;;;;;8.50;90.00;;;;;;5042393;28;87167;-63
2021/03/05 06:02:42;;;;;;;;;;;8.50;89.90;;;;;;5040660;27;87139;-64
2021/03/05 06:05:08;;;;;;;;;;;8.50;90.20;;;;;;5039044;27;89166;-63
2021/03/05 06:07:34;;;;;;;;;;;8.50;90.20;;;;;;5038970;27;87557;-64
2021/03/05 06:10:00;;;;;;;;;;;8.40;90.20;;;;;;5039029;28;87232;-64
2021/03/05 06:12:25;;;;;;;;;;;8.50;90.00;;;;;;5039488;27;87479;-63
2021/03/05 06:14:51;;;;;;;;;;;8.40;90.20;;;;;;5039472;28;87713;-63
2021/03/05 06:17:16;;;;;;;;;;;8.40;90.20;;;;;;5039393;28;87144;-64
2021/03/05 06:19:42;;;;;;;;;;;8.40;90.10;;;;;;5039057;28;87152;-64
2021/03/05 06:22:18;;;;;;;;;;;8.40;90.30;;;;;;5041293;28;88041;-63
2021/03/05 06:24:44;;;;;;;;;;;8.40;90.10;;;;;;5042793;28;88187;-64
2021/03/05 06:27:09;;;;;;;;;;;8.40;89.90;;;;;;5042262;27;88137;-63
2021/03/05 06:29:42;;;;;;;;;;;8.40;90.20;;;;;;5041240;28;88086;-63
2021/03/05 06:32:09;;;;;;;;;;;8.40;90.20;;;;;;5038421;27;88339;-64
2021/03/05 06:34:44;;;;;;;;;;;8.40;90.10;;;;;;5042384;28;87677;-64
2021/03/05 06:37:09;;;;;;;;;;;8.30;90.00;;;;;;5038024;28;87157;-64
2021/03/05 06:39:35;;;;;;;;;;;8.30;90.10;;;;;;5038301;27;87602;-64
2021/03/05 06:42:03;;;;;;;;;;;8.30;90.00;;;;;;5038071;28;87777;-63
2021/03/05 06:44:29;;;;;;;;;;;8.30;90.10;;;;;;5043128;27;88248;-63
2021/03/05 06:46:54;;;;;;;;;;;8.30;90.10;;;;;;5038076;27;89364;-64
2021/03/05 06:49:21;;;;;;;;;;;8.30;90.00;;;;;;5037560;28;88778;-64
2021/03/05 06:51:55;;;;;;;;;;;8.30;89.90;;;;;;5041964;28;87593;-64
2021/03/05 06:54:21;;;;;;;;;;;8.30;90.00;;;;;;5041290;28;89501;-64
2021/03/05 06:56:47;;;;;;;;;;;8.30;90.10;;;;;;5041691;28;87208;-64
2021/03/05 06:59:14;;;;;;;;;;;8.30;90.20;;;;;;5041590;28;88728;-63
2021/03/05 07:01:53;;;;;;;;;;;8.30;90.10;;;;;;5041795;28;88192;-63
2021/03/05 07:04:26;;;;;;;;;;;8.30;90.10;;;;;;5039739;27;87105;-63
2021/03/05 07:07:05;;;;;;;;;;;8.30;90.10;;;;;;5041633;27;88270;-64
2021/03/05 07:09:35;;;;;;;;;;;8.30;90.20;;;;;;5041119;27;88359;-65
2021/03/05 07:12:05;;;;;;;;;;;8.30;90.10;;;;;;5040984;27;87071;-64
2021/03/05 07:14:32;;;;;;;;;;;8.30;90.20;;;;;;5042009;27;88329;-63
2021/03/05 07:16:58;;;;;;;;;;;8.30;90.00;;;;;;5041029;27;87959;-63
2021/03/05 07:19:25;;;;;;;;;;;8.30;90.10;;;;;;5039176;28;89569;-63
2021/03/05 07:21:50;;;;;;;;;;;8.30;90.00;;;;;;5041337;28;88735;-64
2021/03/05 07:24:17;;;;;;;;;;;8.30;90.20;;;;;;5038999;27;88561;-64
2021/03/05 07:26:43;;;;;;;;;;;8.20;90.20;;;;;;5042350;27;88659;-64
2021/03/05 07:29:16;;;;;;;;;;;8.20;90.20;;;;;;5039908;27;88105;-64
2021/03/05 07:31:42;;;;;;;;;;;8.20;90.20;;;;;;5039654;27;87434;-64
2021/03/05 07:34:10;;;;;;;;;;;8.20;90.00;;;;;;5037847;27;87921;-64
2021/03/05 07:36:37;;;;;;;;;;;8.20;90.20;;;;;;5041516;28;86400;-65
2021/03/05 07:39:04;;;;;;;;;;;8.20;90.10;;;;;;5038213;27;87155;-64
2021/03/05 07:41:30;;;;;;;;;;;8.20;90.20;;;;;;5037154;27;87472;-64
2021/03/05 07:43:56;;;;;;;;;;;8.20;90.10;;;;;;5036763;27;88150;-64
2021/03/05 07:46:22;;;;;;;;;;;8.20;90.10;;;;;;5040864;28;88540;-64
2021/03/05 07:48:49;;;;;;;;;;;8.20;90.10;;;;;;5041538;27;87808;-64
2021/03/05 07:51:14;;;;;;;;;;;8.20;90.20;;;;;;5039902;27;89193;-65
2021/03/05 07:53:49;;;;;;;;;;;8.20;90.20;;;;;;5040360;27;88005;-64
2021/03/05 07:56:34;;;;;;;;;;;8.20;90.10;;;;;;5037487;27;87201;-64
2021/03/05 07:58:59;;;;;;;;;;;8.30;90.30;;;;;;5040829;28;87615;-66
2021/03/05 08:01:43;;;;;;;;;;;8.30;90.20;;;;;;5040967;28;86873;-64
2021/03/05 08:04:09;;;;;;;;;;;8.20;90.20;;;;;;5038274;28;87189;-64
2021/03/05 08:06:35;;;;;;;;;;;8.20;90.10;;;;;;5039587;28;87596;-64
2021/03/05 08:09:07;;;;;;;;;;;8.20;90.20;;;;;;5038753;28;88876;-64
2021/03/05 08:11:36;;;;;;;;;;;8.20;90.20;;;;;;5039261;28;88061;-64
2021/03/05 08:14:20;;;;;;;;;;;8.20;90.30;;;;;;5037454;27;87664;-64
2021/03/05 08:16:47;;;;;;;;;;;8.20;90.10;;;;;;5039763;27;87192;-64
2021/03/05 08:19:14;;;;;;;;;;;8.30;90.20;;;;;;5039746;28;87134;-65
2021/03/05 08:21:57;;;;;;;;;;;8.30;90.20;;;;;;5038749;28;88208;-65
2021/03/05 08:24:26;;;;;;;;;;;8.30;90.30;;;;;;5037456;27;87158;-65
2021/03/05 08:26:57;;;;;;;;;;;8.30;90.40;;;;;;5039688;28;86904;-64
2021/03/05 08:30:05;;;;;;;;;;;8.30;90.30;;;;;;5038035;28;88324;-64
2021/03/05 08:32:30;;;;;;;;;;;8.30;90.30;;;;;;4978826;28;87544;-64
2021/03/05 08:34:57;;;;;;;;;;;8.30;90.40;;;;;;5030325;27;89661;-64
2021/03/05 08:37:26;;;;;;;;;;;8.30;90.40;;;;;;5040850;27;87232;-65
2021/03/05 08:39:51;;;;;;;;;;;8.30;90.40;;;;;;5038730;27;87742;-65
2021/03/05 08:42:27;;;;;;;;;;;8.30;90.40;;;;;;5038562;28;88031;-64
2021/03/05 08:45:11;;;;;;;;;;;8.30;90.40;;;;;;5036712;28;87103;-64
2021/03/05 08:47:38;;;;;;;;;;;8.30;90.50;;;;;;5038347;28;87256;-64
2021/03/05 08:50:04;;;;;;;;;;;8.30;90.40;;;;;;5037323;28;88864;-64
2021/03/05 08:52:31;;;;;;;;;;;8.30;90.40;;;;;;5041276;28;86416;-65
2021/03/05 08:54:56;;;;;;;;;;;8.40;90.50;;;;;;5039894;27;87126;-64
2021/03/05 08:57:22;;;;;;;;;;;8.40;90.50;;;;;;5041871;28;87693;-64
2021/03/05 08:59:50;;;;;;;;;;;8.40;90.50;;;;;;5037827;27;88082;-64
2021/03/05 09:02:16;;;;;;;;;;;8.40;90.50;;;;;;5040723;27;87854;-65
2021/03/05 09:04:41;;;;;;;;;;;8.40;90.50;;;;;;5040160;28;87179;-65
2021/03/05 09:07:11;;;;;;;;;;;8.40;90.50;;;;;;5040294;28;87144;-65
2021/03/05 09:09:37;;;;;;;;;;;8.40;90.50;;;;;;5035985;28;88912;-64
2021/03/05 09:12:13;;;;;;;;;;;8.40;90.50;;;;;;5036894;28;87220;-64
2021/03/05 09:14:45;;;;;;;;;;;8.40;90.50;;;;;;5037452;27;87436;-64
2021/03/05 09:17:12;;;;;;;;;;;8.40;90.50;;;;;;5038896;27;87207;-64
2021/03/05 09:19:37;;;;;;;;;;;8.40;90.50;;;;;;5039331;28;88485;-65
2021/03/05 09:22:07;;;;;;;;;;;8.40;90.50;;;;;;5040043;28;87795;-65
2021/03/05 09:24:49;;;;;;;;;;;8.50;90.50;;;;;;5035232;28;89101;-64
2021/03/05 09:27:41;;;;;;;;;;;8.40;90.50;;;;;;5039810;28;88553;-64
2021/03/05 09:30:13;;;;;;;;;;;8.50;90.50;;;;;;5037088;28;87114;-64
2021/03/05 09:32:46;;;;;;;;;;;8.50;90.50;;;;;;5043827;27;88759;-65
2021/03/05 09:35:12;;;;;;;;;;;8.50;90.50;;;;;;5040345;27;87371;-64
2021/03/05 09:37:37;;;;;;;;;;;8.50;90.50;;;;;;5038853;27;87821;-64
2021/03/05 09:40:03;;;;;;;;;;;8.50;90.50;;;;;;5041703;28;87986;-64
2021/03/05 09:42:44;;;;;;;;;;;8.50;90.50;;;;;;5042376;27;87359;-64
2021/03/05 09:45:10;;;;;;;;;;;8.50;90.60;;;;;;5040478;28;87209;-64
2021/03/05 09:47:48;;;;;;;;;;;8.50;90.50;;;;;;5039417;27;88852;-64
2021/03/05 09:50:20;;;;;;;;;;;8.60;90.50;;;;;;5041099;28;88705;-64
2021/03/05 09:52:46;;;;;;;;;;;8.60;90.50;;;;;;5040917;27;87154;-64
2021/03/05 09:55:25;;;;;;;;;;;8.60;90.50;;;;;;5040248;27;87154;-64
2021/03/05 09:57:51;;;;;;;;;;;8.60;90.60;;;;;;5041377;27;88257;-65
2021/03/05 10:00:46;;;;;;;;;;;8.60;90.50;;;;;;5041331;27;87203;-64
2021/03/05 10:03:12;;;;;;;;;;;8.70;90.50;;;;;;5032226;27;88710;-64
2021/03/05 10:05:39;;;;;;;;;;;8.60;90.50;;;;;;5042626;28;88019;-64
2021/03/05 10:08:13;;;;;;;;;;;8.70;90.60;;;;;;5043590;27;90072;-65
2021/03/05 10:10:57;;;;;;;;;;;8.70;90.50;;;;;;5038363;28;88162;-64
2021/03/05 10:13:42;;;;;;;;;;;8.70;90.50;;;;;;5042284;28;87690;-64
2021/03/05 10:16:33;;;;;;;;;;;8.70;90.50;;;;;;5037940;28;88205;-64
2021/03/05 10:19:01;;;;;;;;;;;8.70;90.50;;;;;;5039545;28;88187;-64
2021/03/05 10:21:26;;;;;;;;;;;8.80;90.50;;;;;;5040000;27;87212;-64
2021/03/05 10:23:52;;;;;;;;;;;8.80;90.50;;;;;;5039373;28;87556;-64
2021/03/05 10:26:19;;;;;;;;;;;8.80;90.40;;;;;;5042715;28;88483;-64
2021/03/05 10:28:45;;;;;;;;;;;8.80;90.50;;;;;;5039436;28;87177;-64
2021/03/05 10:31:11;;;;;;;;;;;8.80;90.40;;;;;;5038538;27;87657;-64
2021/03/05 10:33:41;;;;;;;;;;;8.80;90.40;;;;;;5040435;28;86401;-64
2021/03/05 10:36:08;;;;;;;;;;;8.80;90.40;;;;;;5042022;27;87211;-64
2021/03/05 10:38:34;;;;;;;;;;;8.90;90.30;;;;;;5041405;27;88052;-64
2021/03/05 10:41:01;;;;;;;;;;;8.90;90.30;;;;;;5040974;27;88108;-64
2021/03/05 10:43:26;;;;;;;;;;;8.90;90.30;;;;;;5041721;27;88009;-65
2021/03/05 10:45:52;;;;;;;;;;;8.90;90.60;;;;;;5042479;27;87582;-64
2021/03/05 10:48:17;;;;;;;;;;;9.00;90.30;;;;;;5043685;28;88016;-64
2021/03/05 10:50:43;;;;;;;;;;;8.90;90.30;;;;;;5037957;28;87611;-64
2021/03/05 10:53:08;;;;;;;;;;;8.90;90.40;;;;;;5039267;27;87146;-64
2021/03/05 10:55:34;;;;;;;;;;;9.00;90.30;;;;;;5040424;28;87149;-64
2021/03/05 10:57:59;;;;;;;;;;;9.00;90.30;;;;;;5041869;28;86438;-64
2021/03/05 11:00:25;;;;;;;;;;;9.00;90.50;;;;;;5041516;28;88781;-64
2021/03/05 11:02:51;;;;;;;;;;;9.00;90.30;;;;;;5039270;28;87667;-64
2021/03/05 11:05:17;;;;;;;;;;;9.10;90.30;;;;;;5037249;28;88636;-65
2021/03/05 11:07:42;;;;;;;;;;;9.10;90.30;;;;;;5039075;27;87246;-64
2021/03/05 11:10:08;;;;;;;;;;;9.10;90.30;;;;;;5041539;28;87505;-65
2021/03/05 11:12:34;;;;;;;;;;;9.10;90.30;;;;;;5039640;27;87132;-65
2021/03/05 11:15:00;;;;;;;;;;;9.10;90.30;;;;;;5040966;28;87157;-64
2021/03/05 11:17:25;;;;;;;;;;;9.10;90.40;;;;;;5040148;28;87626;-64
2021/03/05 11:19:50;;;;;;;;;;;9.10;90.30;;;;;;5039939;28;87156;-64
2021/03/05 11:22:16;;;;;;;;;;;9.20;90.20;;;;;;5039716;28;86852;-65
2021/03/05 11:24:42;;;;;;;;;;;9.20;90.30;;;;;;5039352;27;87557;-63
2021/03/05 11:27:07;;;;;;;;;;;9.20;90.20;;;;;;5040921;28;87165;-64
2021/03/05 11:29:33;;;;;;;;;;;9.30;90.10;;;;;;5043893;28;89804;-64
2021/03/05 11:32:00;;;;;;;;;;;9.30;89.90;;;;;;5038966;28;88147;-64
2021/03/05 11:34:25;;;;;;;;;;;9.30;90.10;;;;;;5040959;27;87589;-64
2021/03/05 11:36:51;;;;;;;;;;;9.30;90.00;;;;;;5036581;28;88700;-64
2021/03/05 11:39:16;;;;;;;;;;;9.30;90.00;;;;;;5040684;27;88580;-64
2021/03/05 11:41:42;;;;;;;;;;;9.30;90.10;;;;;;5041896;27;87660;-65
2021/03/05 11:44:08;;;;;;;;;;;9.30;90.00;;;;;;5040669;28;87221;-64
2021/03/05 11:46:33;;;;;;;;;;;9.40;89.90;;;;;;5041873;27;86401;-64
2021/03/05 11:48:59;;;;;;;;;;;9.40;89.70;;;;;;5040598;27;87200;-64
2021/03/05 11:51:24;;;;;;;;;;;9.40;89.80;;;;;;5042036;27;87973;-64
2021/03/05 11:53:50;;;;;;;;;;;9.40;90.00;;;;;;5038855;28;88098;-65
2021/03/05 11:56:16;;;;;;;;;;;9.40;89.70;;;;;;5040051;27;88634;-65
2021/03/05 11:58:41;;;;;;;;;;;9.50;90.00;;;;;;5040772;27;87154;-64
2021/03/05 12:01:07;;;;;;;;;;;9.50;89.90;;;;;;5040300;28;87134;-64
2021/03/05 12:03:32;;;;;;;;;;;9.50;90.00;;;;;;5039061;28;88284;-64
2021/03/05 12:05:58;;;;;;;;;;;9.50;89.80;;;;;;5039218;27;87175;-65
2021/03/05 12:08:24;;;;;;;;;;;9.60;89.70;;;;;;5040160;28;87196;-64
2021/03/05 12:10:50;;;;;;;;;;;9.60;89.90;;;;;;5040569;27;87420;-65
2021/03/05 12:13:16;;;;;;;;;;;9.60;90.00;;;;;;5044328;27;87190;-64
2021/03/05 12:15:41;;;;;;;;;;;9.60;90.00;;;;;;5040465;28;87690;-65
2021/03/05 12:18:09;;;;;;;;;;;9.60;89.90;;;;;;5039293;28;88107;-64
2021/03/05 12:20:35;;;;;;;;;;;9.70;90.00;;;;;;5037438;28;88029;-64
2021/03/05 12:23:01;;;;;;;;;;;9.70;90.00;;;;;;5036605;27;88025;-64
2021/03/05 12:25:26;;;;;;;;;;;9.70;89.90;;;;;;5036527;28;87186;-64
2021/03/05 12:27:52;;;;;;;;;;;9.80;89.80;;;;;;5036651;28;88636;-64
2021/03/05 12:30:18;;;;;;;;;;;9.80;90.00;;;;;;5038522;28;88976;-64
2021/03/05 12:32:45;;;;;;;;;;;9.80;89.80;;;;;;5039740;27;87156;-64
2021/03/05 12:35:11;;;;;;;;;;;9.80;89.70;;;;;;5042886;27;87267;-64
2021/03/05 12:37:37;;;;;;;;;;;9.90;90.00;;;;;;5040672;27;88728;-64
2021/03/05 12:40:03;;;;;;;;;;;9.90;89.90;;;;;;5037435;28;88718;-64
2021/03/05 12:42:28;;;;;;;;;;;9.90;90.10;;;;;;5035234;27;91247;-64
2021/03/05 12:44:54;;;;;;;;;;;9.90;90.00;;;;;;5037624;28;87168;-64
2021/03/05 12:47:19;;;;;;;;;;;9.90;89.90;;;;;;5037712;28;88087;-64
2021/03/05 12:49:45;;;;;;;;;;;9.90;89.90;;;;;;5036437;28;87236;-64
2021/03/05 12:52:10;;;;;;;;;;;10.00;90.00;;;;;;5036270;28;87145;-65
2021/03/05 12:54:36;;;;;;;;;;;10.00;90.00;;;;;;5036608;27;87749;-64
2021/03/05 12:57:01;;;;;;;;;;;10.00;90.00;;;;;;5039396;28;88683;-64
2021/03/05 12:59:27;;;;;;;;;;;10.00;90.00;;;;;;5038623;27;86565;-64
2021/03/05 13:01:55;;;;;;;;;;;10.00;90.00;;;;;;5039066;27;88175;-64
2021/03/05 13:04:20;;;;;;;;;;;10.10;90.00;;;;;;5040524;27;87167;-64
2021/03/05 13:06:46;;;;;;;;;;;10.10;90.00;;;;;;5041805;28;88083;-65
2021/03/05 13:09:11;;;;;;;;;;;10.10;90.00;;;;;;5043318;28;88449;-66
2021/03/05 13:11:38;;;;;;;;;;;10.10;90.00;;;;;;5042842;28;88402;-64
2021/03/05 13:14:04;;;;;;;;;;;10.20;89.90;;;;;;5044251;27;87203;-64
2021/03/05 13:16:29;;;;;;;;;;;10.20;90.00;;;;;;5041098;28;88828;-65
2021/03/05 13:18:55;;;;;;;;;;;10.20;90.00;;;;;;5042305;27;87170;-64
2021/03/05 13:21:21;;;;;;;;;;;10.20;90.00;;;;;;5039135;27;87611;-64
2021/03/05 13:23:46;;;;;;;;;;;10.20;90.00;;;;;;5040978;27;86410;-64
2021/03/05 13:26:13;;;;;;;;;;;10.30;90.10;;;;;;5041684;28;87134;-64
2021/03/05 13:28:40;;;;;;;;;;;10.30;90.00;;;;;;5040577;27;87135;-64
2021/03/05 13:31:06;;;;;;;;;;;10.30;89.80;;;;;;5039830;27;88047;-64
2021/03/05 13:33:31;;;;;;;;;;;10.30;89.30;;;;;;5041573;27;87854;-65
2021/03/05 13:35:57;;;;;;;;;;;10.30;89.40;;;;;;5041865;27;88285;-64
2021/03/05 13:38:23;;;;;;;;;;;10.30;89.10;;;;;;5044501;28;87199;-64
2021/03/05 13:40:48;;;;;;;;;;;10.40;89.40;;;;;;5040499;27;88031;-64
2021/03/05 13:43:14;;;;;;;;;;;10.40;89.10;;;;;;5040326;28;87176;-64
2021/03/05 13:45:39;;;;;;;;;;;10.40;89.20;;;;;;5041599;28;87152;-64
2021/03/05 13:48:05;;;;;;;;;;;10.40;89.30;;;;;;5042951;28;87442;-65
2021/03/05 13:50:30;;;;;;;;;;;10.50;89.10;;;;;;5043776;28;87165;-64
2021/03/05 13:52:56;;;;;;;;;;;10.50;89.00;;;;;;5040476;28;87982;-64
2021/03/05 13:55:21;;;;;;;;;;;10.50;89.20;;;;;;5038268;28;88631;-64
2021/03/05 13:57:47;;;;;;;;;;;10.50;89.10;;;;;;5040437;28;87163;-64
2021/03/05 14:00:13;;;;;;;;;;;10.50;89.80;;;;;;5044328;28;87670;-64
2021/03/05 14:02:38;;;;;;;;;;;10.50;89.50;;;;;;5042266;27;87136;-64
2021/03/05 14:05:04;;;;;;;;;;;10.60;88.80;;;;;;5043421;28;87502;-65
2021/03/05 14:07:30;;;;;;;;;;;10.60;88.90;;;;;;5042137;28;88193;-64
2021/03/05 14:09:56;;;;;;;;;;;10.70;89.20;;;;;;5041752;28;87128;-64
2021/03/05 14:12:22;;;;;;;;;;;10.70;89.50;;;;;;5039738;27;89378;-64
2021/03/05 14:14:47;;;;;;;;;;;10.70;89.30;;;;;;5038027;28;88268;-64
2021/03/05 14:17:13;;;;;;;;;;;10.70;89.70;;;;;;5038436;27;88153;-64
2021/03/05 14:19:38;;;;;;;;;;;10.70;89.50;;;;;;5038343;28;89415;-64
2021/03/05 14:22:04;;;;;;;;;;;10.80;89.30;;;;;;5041974;28;88418;-63
2021/03/05 14:24:29;;;;;;;;;;;10.90;89.30;;;;;;5040538;28;87417;-65
2021/03/05 14:26:55;;;;;;;;;;;10.90;89.40;;;;;;5041454;28;88050;-64
2021/03/05 14:29:20;;;;;;;;;;;10.90;89.00;;;;;;5043174;28;87176;-64
2021/03/05 14:31:46;;;;;;;;;;;10.90;89.50;;;;;;5040973;27;88763;-66